Time;durP1;ratioP1;P1;durP2;ratioP2;P2;SDS_P1;SDS_P2;PMS_P1;PMS_P2;Temp;Humidity;BMP_temperature;BMP_pressure;BME280_temperature;BME280_humidity;BME280_pressure;Samples;Min_cycle;Max_cycle;Signal;HPM_P1;HPM_P2
2023/08/20 00:00:25;;;;;;;6.65;4.30;;;21.00;99.90;;;;;;4972014;28;20530;-77
2023/08/20 00:03:12;;;;;;;4.10;3.70;;;21.00;99.90;;;;;;4971584;28;20025;-77
2023/08/20 00:05:38;;;;;;;8.15;4.35;;;21.00;99.90;;;;;;4971886;28;20110;-76
2023/08/20 00:08:04;;;;;;;7.07;4.95;;;21.00;99.90;;;;;;4971871;28;20588;-76
2023/08/20 00:10:31;;;;;;;6.85;4.50;;;21.00;99.90;;;;;;4971867;28;20105;-76
2023/08/20 00:12:57;;;;;;;5.43;3.80;;;20.90;99.90;;;;;;4972050;28;20475;-76
2023/08/20 00:15:26;;;;;;;8.40;4.70;;;20.90;99.90;;;;;;4972074;28;20539;-76
2023/08/20 00:17:53;;;;;;;4.45;4.00;;;20.80;99.90;;;;;;4954246;28;20027;-77
2023/08/20 00:20:19;;;;;;;6.47;4.65;;;20.70;99.90;;;;;;4971879;28;20038;-76
2023/08/20 00:22:46;;;;;;;5.50;4.45;;;20.60;99.90;;;;;;4971775;28;20042;-76
2023/08/20 00:25:13;;;;;;;6.43;4.93;;;20.50;99.90;;;;;;4971643;28;20022;-76
2023/08/20 00:27:40;;;;;;;6.25;4.55;;;20.50;99.90;;;;;;4971604;28;20066;-77
2023/08/20 00:30:06;;;;;;;6.03;4.18;;;20.50;99.90;;;;;;4971869;28;20031;-77
2023/08/20 00:32:32;;;;;;;4.50;3.70;;;20.50;99.90;;;;;;4971271;28;20015;-76
2023/08/20 00:34:58;;;;;;;6.07;4.57;;;20.40;99.90;;;;;;4968945;28;20031;-76
2023/08/20 00:37:23;;;;;;;6.45;4.63;;;20.40;99.90;;;;;;4971523;28;20092;-77
2023/08/20 00:39:49;;;;;;;5.20;4.70;;;20.30;99.90;;;;;;4971470;28;20387;-76
2023/08/20 00:42:15;;;;;;;5.93;4.65;;;20.30;99.90;;;;;;4971332;28;20468;-76
2023/08/20 00:44:41;;;;;;;7.22;4.88;;;20.20;99.90;;;;;;4971339;28;20033;-76
2023/08/20 00:47:08;;;;;;;6.22;4.40;;;20.20;99.90;;;;;;4970995;28;20612;-76
2023/08/20 00:49:34;;;;;;;7.05;4.30;;;20.20;99.90;;;;;;4971178;28;20030;-77
2023/08/20 00:52:01;;;;;;;4.85;4.43;;;20.20;99.90;;;;;;4971246;28;20038;-76
2023/08/20 00:54:28;;;;;;;5.40;4.13;;;20.10;99.90;;;;;;4971163;28;20023;-76
2023/08/20 00:56:54;;;;;;;8.02;4.05;;;20.10;99.90;;;;;;4971059;28;20049;-76
2023/08/20 00:59:20;;;;;;;8.18;4.00;;;20.10;99.90;;;;;;4971004;28;20029;-76
2023/08/20 01:01:46;;;;;;;6.90;4.35;;;20.10;99.90;;;;;;4970647;28;20105;-76
2023/08/20 01:04:12;;;;;;;4.47;4.05;;;20.10;99.90;;;;;;4970954;28;20488;-76
2023/08/20 01:07:07;;;;;;;4.22;3.83;;;19.90;99.90;;;;;;4970943;28;20106;-76
2023/08/20 01:09:50;;;;;;;5.43;4.70;;;20.00;99.90;;;;;;4953467;28;20053;-76
2023/08/20 01:12:17;;;;;;;5.28;4.20;;;19.90;99.90;;;;;;4971000;28;20074;-76
2023/08/20 01:14:42;;;;;;;5.43;3.70;;;19.90;99.90;;;;;;4970864;28;20717;-76
2023/08/20 01:17:08;;;;;;;7.05;4.30;;;19.90;99.90;;;;;;4968992;28;20030;-76
2023/08/20 01:19:35;;;;;;;4.93;4.43;;;19.90;99.90;;;;;;4952996;28;20035;-76
2023/08/20 01:22:19;;;;;;;8.35;5.22;;;19.90;99.90;;;;;;4953136;28;20122;-76
2023/08/20 01:25:06;;;;;;;5.65;4.53;;;19.80;99.90;;;;;;4970475;28;20046;-76
2023/08/20 01:28:08;;;;;;;8.50;5.70;;;19.70;99.90;;;;;;4953180;28;20027;-76
2023/08/20 01:30:34;;;;;;;5.47;4.45;;;19.70;99.90;;;;;;4970566;28;20377;-76
2023/08/20 01:33:01;;;;;;;5.40;4.10;;;19.60;99.90;;;;;;4970129;28;20037;-76
2023/08/20 01:35:27;;;;;;;6.03;4.97;;;19.60;99.90;;;;;;4953055;28;20070;-77
2023/08/20 01:37:52;;;;;;;8.77;4.80;;;19.60;99.90;;;;;;4969047;28;20035;-77
2023/08/20 01:40:18;;;;;;;8.85;4.55;;;19.60;99.90;;;;;;4969264;28;20027;-77
2023/08/20 01:42:44;;;;;;;4.72;3.92;;;19.60;99.90;;;;;;4970401;28;20145;-77
2023/08/20 01:45:10;;;;;;;9.50;5.30;;;19.60;99.90;;;;;;4952570;28;20058;-75
2023/08/20 01:47:36;;;;;;;12.02;5.32;;;19.60;99.90;;;;;;4970084;28;20128;-76
2023/08/20 01:50:02;;;;;;;8.63;5.20;;;19.60;99.90;;;;;;4968984;28;20165;-77
2023/08/20 01:52:29;;;;;;;11.43;5.90;;;19.50;99.90;;;;;;4952992;28;20034;-77
2023/08/20 01:54:55;;;;;;;5.75;5.13;;;19.60;99.90;;;;;;4968900;28;20031;-77
2023/08/20 01:57:20;;;;;;;6.35;4.93;;;19.50;99.90;;;;;;4970236;28;20034;-76
2023/08/20 01:59:47;;;;;;;5.45;4.50;;;19.50;99.90;;;;;;4970259;28;20141;-77
2023/08/20 02:02:13;;;;;;;7.50;5.10;;;19.50;99.90;;;;;;4952394;28;20402;-78
2023/08/20 02:04:39;;;;;;;5.95;4.20;;;19.40;99.90;;;;;;4952751;28;20114;-77
2023/08/20 02:07:04;;;;;;;8.20;5.05;;;19.50;99.90;;;;;;4968986;28;20468;-76
2023/08/20 02:09:31;;;;;;;5.95;4.72;;;19.50;99.90;;;;;;4970394;28;20047;-76
2023/08/20 02:11:57;;;;;;;7.03;5.00;;;19.50;99.90;;;;;;4970180;28;20093;-77
2023/08/20 02:14:23;;;;;;;10.98;4.80;;;19.40;99.90;;;;;;4968821;28;20121;-77
2023/08/20 02:16:48;;;;;;;5.95;5.00;;;19.40;99.90;;;;;;4969857;28;20106;-76
2023/08/20 02:19:14;;;;;;;4.90;4.40;;;19.30;99.90;;;;;;4952851;28;20126;-77
2023/08/20 02:21:40;;;;;;;5.72;4.55;;;19.40;99.90;;;;;;4970146;28;20041;-77
2023/08/20 02:24:06;;;;;;;7.68;4.97;;;19.40;99.90;;;;;;4970226;28;20030;-77
2023/08/20 02:26:32;;;;;;;6.68;4.70;;;19.40;99.90;;;;;;4970357;28;20031;-77
2023/08/20 02:28:57;;;;;;;5.93;4.80;;;19.40;99.90;;;;;;4969983;28;20117;-76
2023/08/20 02:31:23;;;;;;;5.60;4.97;;;19.40;99.90;;;;;;4969644;28;20022;-76
2023/08/20 02:33:49;;;;;;;6.88;4.70;;;19.40;99.90;;;;;;4969813;28;20025;-77
2023/08/20 02:36:15;;;;;;;6.32;5.13;;;19.40;99.90;;;;;;4969881;28;20127;-76
2023/08/20 02:38:40;;;;;;;4.65;4.07;;;19.40;99.90;;;;;;4970067;28;20030;-76
2023/08/20 02:41:06;;;;;;;7.53;5.18;;;19.30;99.90;;;;;;4952388;28;20468;-76
2023/08/20 02:43:32;;;;;;;5.45;4.40;;;19.30;99.90;;;;;;4970162;28;20376;-76
2023/08/20 02:45:58;;;;;;;7.35;5.07;;;19.30;99.90;;;;;;4969823;28;20037;-76
2023/08/20 02:48:27;;;;;;;8.60;4.35;;;19.30;99.90;;;;;;4951907;28;20027;-75
2023/08/20 02:50:56;;;;;;;6.95;4.63;;;19.30;99.90;;;;;;4969738;28;20097;-76
2023/08/20 02:53:22;;;;;;;10.15;5.93;;;19.30;99.90;;;;;;4969782;28;20504;-76
2023/08/20 02:55:48;;;;;;;7.82;5.38;;;19.20;99.90;;;;;;4969609;28;20038;-76
2023/08/20 02:58:14;;;;;;;9.75;5.65;;;19.20;99.90;;;;;;4971327;28;20038;-76
2023/08/20 03:00:42;;;;;;;7.07;4.93;;;19.10;99.90;;;;;;4973022;28;20133;-76
2023/08/20 03:03:08;;;;;;;6.80;5.78;;;19.20;99.90;;;;;;4972771;28;20518;-76
2023/08/20 03:05:34;;;;;;;6.43;4.38;;;19.20;99.90;;;;;;4955134;28;20054;-76
2023/08/20 03:08:00;;;;;;;5.93;5.30;;;19.10;99.90;;;;;;4972338;28;20023;-76
2023/08/20 03:10:27;;;;;;;9.50;5.50;;;19.10;99.90;;;;;;4972866;28;20035;-76
2023/08/20 03:12:52;;;;;;;7.28;5.25;;;19.20;99.90;;;;;;4972976;28;20496;-77
2023/08/20 03:15:18;;;;;;;8.02;5.35;;;19.20;99.90;;;;;;4955408;28;20530;-76
2023/08/20 03:17:44;;;;;;;5.88;4.72;;;19.20;99.90;;;;;;4954890;28;20162;-76
2023/08/20 03:20:10;;;;;;;7.53;4.72;;;19.30;99.90;;;;;;4972966;28;20046;-76
2023/08/20 03:22:38;;;;;;;5.55;4.13;;;19.30;99.90;;;;;;4955072;28;20423;-77
2023/08/20 03:25:04;;;;;;;5.45;4.43;;;19.30;99.90;;;;;;4955286;28;20022;-77
2023/08/20 03:27:30;;;;;;;5.75;4.53;;;19.40;99.90;;;;;;4972653;28;20026;-77
2023/08/20 03:29:56;;;;;;;6.38;5.15;;;19.30;99.90;;;;;;4972911;28;20588;-77
2023/08/20 03:32:22;;;;;;;5.15;4.65;;;19.40;99.90;;;;;;4954996;28;20034;-76
2023/08/20 03:34:48;;;;;;;5.10;3.85;;;19.40;99.90;;;;;;4972658;28;20496;-76
2023/08/20 03:37:14;;;;;;;6.95;5.07;;;19.30;99.90;;;;;;4972849;28;20035;-76
2023/08/20 03:39:39;;;;;;;5.20;4.25;;;19.30;99.90;;;;;;4972722;28;20403;-75
2023/08/20 03:42:05;;;;;;;9.50;4.93;;;19.30;99.90;;;;;;4972599;28;20030;-76
2023/08/20 03:44:31;;;;;;;11.00;5.68;;;19.20;99.90;;;;;;4972716;28;20023;-76
2023/08/20 03:46:57;;;;;;;6.97;4.63;;;19.30;99.90;;;;;;4954650;28;20037;-76
2023/08/20 03:49:22;;;;;;;6.40;4.70;;;19.30;99.90;;;;;;4955075;28;20030;-76
2023/08/20 03:51:48;;;;;;;5.68;5.03;;;19.30;99.90;;;;;;4972442;28;20026;-76
2023/08/20 03:54:14;;;;;;;6.25;4.50;;;19.30;99.90;;;;;;4955097;28;20093;-76
2023/08/20 03:56:40;;;;;;;5.78;4.38;;;19.30;99.90;;;;;;4972053;28;20031;-76
2023/08/20 03:59:06;;;;;;;6.18;5.15;;;19.30;99.90;;;;;;4972143;28;20023;-77
2023/08/20 04:01:31;;;;;;;5.72;4.50;;;19.30;99.90;;;;;;4971673;28;20121;-76
2023/08/20 04:03:57;;;;;;;10.77;5.38;;;19.30;99.90;;;;;;4970838;28;20368;-75
2023/08/20 04:06:22;;;;;;;8.57;4.63;;;19.30;99.90;;;;;;4972110;28;20751;-76
2023/08/20 04:08:48;;;;;;;11.68;5.35;;;19.30;99.90;;;;;;4971780;28;20035;-77
2023/08/20 04:11:14;;;;;;;6.93;5.20;;;19.30;99.90;;;;;;4972092;28;20031;-76
2023/08/20 04:13:42;;;;;;;6.80;4.45;;;19.30;99.90;;;;;;4972244;28;20078;-76
2023/08/20 04:16:08;;;;;;;6.60;4.57;;;19.30;99.90;;;;;;4971462;28;20037;-76
2023/08/20 04:18:34;;;;;;;5.57;4.47;;;19.40;99.90;;;;;;4970692;28;20396;-76
2023/08/20 04:20:59;;;;;;;11.63;4.95;;;19.40;99.90;;;;;;4971915;28;20066;-76
2023/08/20 04:23:25;;;;;;;6.10;4.30;;;19.30;99.90;;;;;;4971921;28;20031;-76
2023/08/20 04:25:51;;;;;;;8.45;4.15;;;19.30;99.90;;;;;;4971725;28;20033;-76
2023/08/20 04:28:16;;;;;;;7.20;4.25;;;19.20;99.90;;;;;;4971902;28;20081;-76
2023/08/20 04:30:43;;;;;;;5.10;4.60;;;19.10;99.90;;;;;;4971826;28;20432;-76
2023/08/20 04:33:09;;;;;;;6.32;4.50;;;19.10;99.90;;;;;;4969776;28;20084;-75
2023/08/20 04:35:34;;;;;;;6.10;4.60;;;19.10;99.90;;;;;;4971544;28;20130;-76
2023/08/20 04:38:00;;;;;;;5.03;4.40;;;19.10;99.90;;;;;;4971413;28;20053;-76
2023/08/20 04:40:26;;;;;;;5.78;4.55;;;19.20;99.90;;;;;;4971202;28;20103;-76
2023/08/20 04:42:51;;;;;;;5.88;4.88;;;19.20;99.90;;;;;;4971299;28;20026;-76
2023/08/20 04:45:19;;;;;;;6.05;4.93;;;19.20;99.90;;;;;;4971637;28;20519;-77
2023/08/20 04:47:45;;;;;;;9.38;5.10;;;19.10;99.90;;;;;;4971053;28;20029;-76
2023/08/20 04:50:11;;;;;;;5.70;4.28;;;19.00;99.90;;;;;;4953876;28;20054;-76
2023/08/20 04:52:36;;;;;;;6.35;4.82;;;19.20;99.90;;;;;;4971147;28;20030;-76
2023/08/20 04:55:03;;;;;;;9.20;4.60;;;19.20;99.90;;;;;;4971080;28;20053;-77
2023/08/20 04:57:28;;;;;;;6.40;5.57;;;19.10;99.90;;;;;;4970992;28;20031;-76
2023/08/20 04:59:54;;;;;;;9.80;5.07;;;19.10;99.90;;;;;;4970622;28;20114;-76
2023/08/20 05:02:20;;;;;;;5.80;4.63;;;19.10;99.90;;;;;;4970894;28;20026;-77
2023/08/20 05:04:45;;;;;;;5.15;4.38;;;19.10;99.90;;;;;;4953698;28;20074;-76
2023/08/20 05:07:11;;;;;;;9.05;5.00;;;19.10;99.90;;;;;;4969794;28;20702;-76
2023/08/20 05:09:37;;;;;;;4.93;4.43;;;19.10;99.90;;;;;;4970940;28;20105;-77
2023/08/20 05:12:03;;;;;;;9.55;4.40;;;19.10;99.90;;;;;;4970898;28;20058;-77
2023/08/20 05:14:30;;;;;;;5.97;4.53;;;19.10;99.90;;;;;;4970856;28;20027;-76
2023/08/20 05:16:55;;;;;;;6.40;4.18;;;19.20;99.90;;;;;;4953162;28;20027;-77
2023/08/20 05:19:21;;;;;;;6.45;4.57;;;19.30;99.90;;;;;;4971125;28;20081;-76
2023/08/20 05:21:47;;;;;;;11.10;5.25;;;19.30;99.90;;;;;;4970464;28;20054;-77
2023/08/20 05:24:13;;;;;;;6.57;4.68;;;19.50;99.90;;;;;;4970737;28;20027;-76
2023/08/20 05:26:38;;;;;;;5.13;4.60;;;19.60;99.90;;;;;;4953390;28;20427;-77
2023/08/20 05:29:04;;;;;;;5.28;4.30;;;19.60;99.90;;;;;;4970885;28;20030;-77
2023/08/20 05:31:29;;;;;;;8.13;3.90;;;19.80;99.90;;;;;;4968883;28;20404;-76
2023/08/20 05:33:55;;;;;;;6.90;4.63;;;19.80;99.90;;;;;;4970485;28;20113;-77
2023/08/20 05:36:21;;;;;;;4.88;4.28;;;19.90;99.90;;;;;;4953070;28;20054;-75
2023/08/20 05:38:46;;;;;;;4.72;3.70;;;20.00;99.90;;;;;;4953217;28;20111;-76
2023/08/20 05:41:12;;;;;;;6.07;5.10;;;20.10;99.90;;;;;;4969345;28;20062;-76
2023/08/20 05:43:37;;;;;;;6.45;4.57;;;20.20;99.90;;;;;;4970383;28;20454;-77
2023/08/20 05:46:03;;;;;;;9.20;5.93;;;20.30;99.90;;;;;;4970069;28;20023;-77
2023/08/20 05:48:29;;;;;;;8.00;4.38;;;20.40;99.90;;;;;;4970051;28;20360;-76
2023/08/20 05:50:56;;;;;;;7.57;4.65;;;20.50;99.90;;;;;;4970240;28;20162;-76
2023/08/20 05:53:22;;;;;;;7.57;5.15;;;20.60;99.90;;;;;;4968931;28;20455;-72
2023/08/20 05:55:48;;;;;;;5.57;4.95;;;20.70;99.90;;;;;;4970150;28;20047;-73
2023/08/20 05:58:14;;;;;;;6.55;4.80;;;20.70;99.90;;;;;;4970278;28;20023;-73
2023/08/20 06:00:39;;;;;;;6.35;4.72;;;20.90;99.90;;;;;;4970099;28;20057;-73
2023/08/20 06:03:07;;;;;;;6.68;4.32;;;21.10;99.90;;;;;;4968446;28;20042;-72
2023/08/20 06:05:36;;;;;;;5.22;4.03;;;21.30;99.90;;;;;;4977797;28;20467;-71
2023/08/20 06:08:01;;;;;;;5.43;4.65;;;21.30;99.90;;;;;;4985592;28;20078;-74
2023/08/20 06:10:27;;;;;;;5.40;4.28;;;21.40;99.90;;;;;;4989455;28;20035;-72
2023/08/20 06:12:53;;;;;;;6.65;4.97;;;21.40;99.90;;;;;;4989664;28;20113;-73
2023/08/20 06:15:19;;;;;;;6.93;4.03;;;21.50;99.90;;;;;;4988228;28;20034;-74
2023/08/20 06:17:44;;;;;;;5.97;4.88;;;21.60;99.90;;;;;;4989278;28;20117;-74
2023/08/20 06:20:11;;;;;;;6.45;4.28;;;21.60;99.90;;;;;;4989598;28;20018;-72
2023/08/20 06:22:38;;;;;;;4.03;3.30;;;21.70;99.90;;;;;;4989329;28;20495;-72
2023/08/20 06:25:04;;;;;;;10.30;4.60;;;21.90;99.90;;;;;;4989410;28;20026;-72
2023/08/20 06:27:30;;;;;;;6.53;4.20;;;22.00;99.90;;;;;;4989145;28;20602;-72
2023/08/20 06:29:56;;;;;;;10.50;4.30;;;22.10;99.90;;;;;;4988032;28;20137;-73
2023/08/20 06:32:23;;;;;;;6.75;4.70;;;22.30;99.90;;;;;;4990858;28;20344;-72
2023/08/20 06:34:49;;;;;;;6.90;4.68;;;22.40;99.90;;;;;;4975334;28;20030;-72
2023/08/20 06:37:14;;;;;;;5.82;3.95;;;22.60;99.90;;;;;;4993254;28;20085;-73
2023/08/20 06:39:40;;;;;;;6.13;4.28;;;22.70;99.90;;;;;;4993010;28;20026;-73
2023/08/20 06:42:06;;;;;;;8.93;5.18;;;22.90;99.90;;;;;;4992959;28;20486;-74
2023/08/20 06:44:31;;;;;;;5.10;4.60;;;23.10;99.90;;;;;;4992798;28;20031;-73
2023/08/20 06:46:57;;;;;;;5.93;5.00;;;23.30;99.90;;;;;;4992421;28;20634;-72
2023/08/20 06:49:22;;;;;;;6.82;5.00;;;23.40;99.90;;;;;;4992744;28;20107;-75
2023/08/20 06:51:48;;;;;;;9.32;4.35;;;23.20;99.90;;;;;;4992780;28;20033;-75
2023/08/20 06:54:15;;;;;;;7.25;4.75;;;23.30;99.90;;;;;;4992946;28;20096;-75
2023/08/20 06:56:41;;;;;;;6.57;4.63;;;23.30;99.90;;;;;;4992807;28;20038;-76
2023/08/20 06:59:07;;;;;;;7.88;4.80;;;23.10;99.90;;;;;;4993630;28;20027;-76
2023/08/20 07:01:32;;;;;;;9.93;5.13;;;23.30;99.90;;;;;;4999365;28;20374;-72
2023/08/20 07:03:58;;;;;;;7.13;4.85;;;23.20;99.90;;;;;;4987920;28;20047;-71
2023/08/20 07:06:24;;;;;;;4.78;3.97;;;23.30;99.90;;;;;;4953134;28;20023;-73
2023/08/20 07:08:50;;;;;;;10.60;4.72;;;23.30;99.90;;;;;;4975397;28;20030;-72
2023/08/20 07:11:16;;;;;;;4.95;4.28;;;23.40;99.90;;;;;;4971753;28;20031;-72
2023/08/20 07:13:41;;;;;;;6.95;4.30;;;23.50;99.90;;;;;;4953676;28;20043;-71
2023/08/20 07:16:07;;;;;;;8.50;5.25;;;23.60;99.90;;;;;;4972444;28;20614;-72
2023/08/20 07:18:33;;;;;;;7.53;4.90;;;23.60;99.90;;;;;;4971885;28;20370;-73
2023/08/20 07:20:58;;;;;;;9.40;5.15;;;23.60;99.90;;;;;;4971968;28;20047;-72
2023/08/20 07:23:24;;;;;;;5.65;4.00;;;23.70;99.90;;;;;;4954058;28;20407;-71
2023/08/20 07:25:52;;;;;;;5.47;4.53;;;23.90;99.90;;;;;;4971105;28;20536;-71
2023/08/20 07:28:26;;;;;;;6.30;4.95;;;24.00;99.90;;;;;;4953705;28;20049;-73
2023/08/20 07:30:52;;;;;;;8.38;5.20;;;24.00;99.90;;;;;;4953085;28;20035;-72
2023/08/20 07:33:18;;;;;;;4.78;4.07;;;24.00;99.90;;;;;;4970846;28;20078;-71
2023/08/20 07:35:43;;;;;;;5.20;4.10;;;24.10;99.90;;;;;;4970612;28;20389;-72
2023/08/20 07:38:09;;;;;;;7.22;4.43;;;24.30;99.90;;;;;;4970980;28;20635;-72
2023/08/20 07:40:34;;;;;;;5.28;4.38;;;24.50;99.90;;;;;;4970681;28;20200;-71
2023/08/20 07:43:00;;;;;;;12.25;5.32;;;24.70;99.90;;;;;;4970536;28;20031;-71
2023/08/20 07:45:26;;;;;;;4.95;4.43;;;24.80;99.90;;;;;;4970793;28;20030;-70
2023/08/20 07:47:51;;;;;;;7.10;4.88;;;25.00;99.90;;;;;;4970436;28;20034;-72
2023/08/20 07:50:17;;;;;;;7.40;4.63;;;24.90;99.90;;;;;;4982147;28;20725;-72
2023/08/20 07:52:43;;;;;;;13.95;4.78;;;25.10;99.90;;;;;;4991403;28;20105;-72
2023/08/20 07:55:08;;;;;;;10.73;5.50;;;25.40;99.90;;;;;;4991553;28;20273;-73
2023/08/20 07:57:34;;;;;;;8.32;4.65;;;25.80;99.90;;;;;;4991649;28;20029;-72
2023/08/20 08:00:00;;;;;;;7.97;4.40;;;26.30;99.90;;;;;;4991216;28;20403;-71
2023/08/20 08:02:25;;;;;;;7.00;4.55;;;26.60;99.90;;;;;;4990546;28;20034;-71
2023/08/20 08:04:51;;;;;;;4.93;4.25;;;26.60;99.90;;;;;;4991263;28;20109;-70
2023/08/20 08:07:16;;;;;;;4.85;4.35;;;26.50;99.90;;;;;;4990752;28;20026;-73
2023/08/20 08:09:42;;;;;;;7.53;4.82;;;26.60;99.90;;;;;;4991214;28;20030;-70
2023/08/20 08:12:08;;;;;;;8.85;4.45;;;26.80;99.90;;;;;;4991096;28;20057;-71
2023/08/20 08:14:33;;;;;;;8.10;5.63;;;27.00;99.90;;;;;;4990544;28;20491;-71
2023/08/20 08:16:59;;;;;;;6.50;4.70;;;27.40;99.90;;;;;;4990681;28;20034;-70
2023/08/20 08:19:24;;;;;;;5.20;4.45;;;28.10;99.90;;;;;;4991083;28;20539;-72
2023/08/20 08:21:50;;;;;;;8.85;5.55;;;28.50;99.90;;;;;;4989629;28;20022;-70
2023/08/20 08:24:16;;;;;;;4.43;4.05;;;29.10;99.90;;;;;;4991117;28;20126;-71
2023/08/20 08:26:41;;;;;;;6.75;4.80;;;29.70;99.00;;;;;;4990910;28;20029;-75
2023/08/20 08:29:08;;;;;;;5.55;4.57;;;30.30;96.80;;;;;;4991271;28;20495;-72
2023/08/20 08:31:34;;;;;;;11.93;4.78;;;30.20;95.60;;;;;;4990439;28;20121;-73
2023/08/20 08:34:01;;;;;;;11.43;8.23;;;30.20;95.40;;;;;;4990700;28;20916;-72
2023/08/20 08:36:26;;;;;;;5.65;4.43;;;29.90;95.80;;;;;;4973150;28;20078;-72
2023/08/20 08:38:52;;;;;;;8.23;4.55;;;30.10;94.90;;;;;;4991137;28;20054;-71
2023/08/20 08:41:25;;;;;;;9.10;4.80;;;30.20;94.10;;;;;;4991034;28;20037;-70
2023/08/20 08:43:54;;;;;;;5.03;3.88;;;30.70;93.70;;;;;;4990581;28;20301;-69
2023/08/20 08:46:20;;;;;;;9.95;4.40;;;30.60;92.70;;;;;;4975629;28;20142;-70
2023/08/20 08:48:47;;;;;;;5.00;4.60;;;30.30;93.20;;;;;;4978434;28;20122;-71
2023/08/20 08:51:14;;;;;;;5.90;4.32;;;29.70;93.10;;;;;;4970784;28;20023;-71
2023/08/20 08:53:41;;;;;;;5.72;4.40;;;29.00;94.70;;;;;;4953286;28;20081;-71
2023/08/20 08:56:07;;;;;;;8.43;4.13;;;28.90;96.40;;;;;;4975515;28;20045;-72
2023/08/20 08:58:33;;;;;;;7.43;4.72;;;28.60;96.50;;;;;;4953309;28;20031;-71
2023/08/20 09:00:59;;;;;;;8.55;5.20;;;28.50;96.60;;;;;;4970368;28;20483;-70
2023/08/20 09:03:25;;;;;;;7.47;4.60;;;28.80;96.30;;;;;;4971133;28;20098;-71
2023/08/20 09:06:02;;;;;;;5.70;4.18;;;29.30;95.40;;;;;;4970631;28;20027;-71
2023/08/20 09:08:30;;;;;;;5.18;4.68;;;30.10;94.20;;;;;;4970986;28;20065;-71
2023/08/20 09:10:57;;;;;;;6.20;4.55;;;30.30;93.40;;;;;;4970839;28;20022;-72
2023/08/20 09:13:34;;;;;;;6.88;4.63;;;30.00;93.60;;;;;;4970495;28;20022;-71
2023/08/20 09:16:02;;;;;;;9.13;5.10;;;30.20;92.80;;;;;;4970480;28;20049;-71
2023/08/20 09:18:29;;;;;;;9.45;5.15;;;29.80;91.80;;;;;;4969336;28;20612;-71
2023/08/20 09:20:54;;;;;;;10.63;4.60;;;29.70;91.80;;;;;;4969170;28;20483;-70
2023/08/20 09:23:20;;;;;;;7.32;4.50;;;29.80;92.00;;;;;;4970534;28;20034;-71
2023/08/20 09:25:46;;;;;;;6.93;5.10;;;29.50;92.20;;;;;;4970614;28;20035;-71
2023/08/20 09:28:11;;;;;;;5.07;4.32;;;29.80;91.70;;;;;;4970098;28;20022;-72
2023/08/20 09:30:39;;;;;;;4.85;4.35;;;29.60;91.70;;;;;;4970594;28;20166;-71
2023/08/20 09:33:11;;;;;;;5.40;4.75;;;29.70;91.70;;;;;;4970420;28;20428;-72
2023/08/20 09:35:37;;;;;;;9.02;4.55;;;30.00;91.50;;;;;;4981756;28;20107;-72
2023/08/20 09:38:04;;;;;;;7.55;5.03;;;29.90;91.70;;;;;;4981033;28;20022;-71
2023/08/20 09:40:30;;;;;;;7.93;4.25;;;29.90;91.20;;;;;;4990041;28;20026;-71
2023/08/20 09:42:57;;;;;;;6.53;4.20;;;30.10;91.00;;;;;;4974349;28;20035;-70
2023/08/20 09:45:28;;;;;;;4.00;3.47;;;30.40;90.40;;;;;;4970114;28;20077;-71
2023/08/20 09:47:59;;;;;;;10.23;4.63;;;30.70;89.90;;;;;;4969676;28;20050;-70
2023/08/20 09:50:26;;;;;;;11.73;4.53;;;30.90;89.20;;;;;;4970175;28;20130;-71
2023/08/20 09:53:00;;;;;;;5.28;4.03;;;30.90;86.70;;;;;;4970235;28;20104;-72
2023/08/20 09:55:32;;;;;;;5.53;4.57;;;30.50;87.90;;;;;;4970158;28;20034;-71
2023/08/20 09:58:00;;;;;;;6.55;4.88;;;30.60;88.20;;;;;;4970277;28;20031;-70
2023/08/20 10:00:27;;;;;;;4.50;3.95;;;30.40;87.60;;;;;;4969903;28;20047;-70
2023/08/20 10:02:53;;;;;;;6.65;4.47;;;30.40;89.30;;;;;;4969496;28;20038;-70
2023/08/20 10:05:20;;;;;;;9.60;4.15;;;30.30;87.10;;;;;;4969923;28;20027;-70
2023/08/20 10:07:47;;;;;;;3.85;3.55;;;30.40;88.70;;;;;;4955090;28;20034;-70
2023/08/20 10:10:13;;;;;;;4.32;3.92;;;30.70;87.70;;;;;;4991161;28;20491;-71
2023/08/20 10:12:40;;;;;;;6.60;4.00;;;31.30;87.50;;;;;;4992848;28;20031;-71
2023/08/20 10:15:08;;;;;;;4.47;3.60;;;30.90;85.40;;;;;;4982625;28;20416;-69
2023/08/20 10:17:34;;;;;;;10.57;3.95;;;31.50;86.00;;;;;;4978591;28;20029;-69
2023/08/20 10:20:04;;;;;;;23.85;4.82;;;32.20;84.20;;;;;;4973631;28;20355;-68
2023/08/20 10:22:37;;;;;;;7.45;5.40;;;32.80;82.50;;;;;;4974026;28;20031;-70
2023/08/20 10:25:06;;;;;;;6.97;3.83;;;32.50;81.10;;;;;;4973664;28;20034;-67
2023/08/20 10:27:32;;;;;;;;;;;32.60;80.10;;;;;;4973906;28;20027;-69
2023/08/20 10:30:03;;;;;;;7.65;4.22;;;32.90;78.20;;;;;;4973271;28;19921;-68
2023/08/20 10:32:47;;;;;;;5.53;4.13;;;33.30;77.80;;;;;;4973068;28;20031;-69
2023/08/20 10:35:16;;;;;;;6.65;4.18;;;33.30;78.10;;;;;;4973698;28;20476;-68
2023/08/20 10:38:00;;;;;;;;;;;32.90;78.50;;;;;;4974286;28;20357;-69
2023/08/20 10:40:47;;;;;;;6.82;3.70;;;32.50;78.70;;;;;;4973283;28;19933;-68
2023/08/20 10:43:30;;;;;;;5.10;3.92;;;32.30;79.50;;;;;;4973672;28;20306;-68
2023/08/20 10:46:04;;;;;;;3.83;3.50;;;32.80;79.20;;;;;;4973234;28;20023;-69
2023/08/20 10:48:33;;;;;;;4.03;3.50;;;33.30;79.10;;;;;;4973148;28;20064;-68
2023/08/20 10:51:11;;;;;;;5.05;4.28;;;33.80;77.90;;;;;;4973505;28;20027;-69
2023/08/20 10:53:37;;;;;;;6.45;4.05;;;34.20;75.40;;;;;;4973469;28;20169;-68
2023/08/20 10:56:16;;;;;;;4.03;3.60;;;34.00;76.50;;;;;;4973312;28;20485;-68
2023/08/20 10:58:46;;;;;;;6.35;3.78;;;33.90;76.20;;;;;;4972841;28;20027;-68
2023/08/20 11:01:18;;;;;;;6.22;4.35;;;33.10;72.90;;;;;;4973088;28;20620;-71
2023/08/20 11:03:45;;;;;;;4.60;3.83;;;32.80;75.00;;;;;;4972678;28;20026;-71
2023/08/20 11:06:11;;;;;;;8.00;4.97;;;32.90;75.30;;;;;;4971618;28;20049;-68
2023/08/20 11:08:38;;;;;;;4.60;3.38;;;33.10;74.80;;;;;;4972759;28;20488;-69
2023/08/20 11:11:04;;;;;;;11.18;3.90;;;33.40;73.20;;;;;;4972864;28;20483;-69
2023/08/20 11:13:32;;;;;;;4.63;3.47;;;33.50;73.20;;;;;;4972842;28;20522;-69
2023/08/20 11:15:58;;;;;;;10.88;3.70;;;34.20;73.10;;;;;;4972668;28;20110;-69
2023/08/20 11:18:25;;;;;;;6.05;3.40;;;34.70;72.90;;;;;;4971497;28;20030;-68
2023/08/20 11:20:51;;;;;;;8.43;4.43;;;35.00;72.30;;;;;;4972779;28;20058;-68
2023/08/20 11:23:17;;;;;;;5.07;4.38;;;34.10;72.30;;;;;;4973210;28;20105;-69
2023/08/20 11:25:43;;;;;;;4.40;4.00;;;34.10;73.10;;;;;;4973213;28;20071;-69
2023/08/20 11:28:09;;;;;;;4.63;4.18;;;33.80;73.20;;;;;;4972689;28;20174;-70
2023/08/20 11:30:35;;;;;;;6.07;4.13;;;34.10;72.40;;;;;;4972616;28;20038;-69
2023/08/20 11:33:02;;;;;;;10.80;4.57;;;34.30;71.60;;;;;;4972268;28;20114;-69
2023/08/20 11:35:28;;;;;;;5.65;4.05;;;34.60;71.80;;;;;;4972508;28;20035;-68
2023/08/20 11:37:53;;;;;;;8.65;3.70;;;35.00;70.90;;;;;;4972466;28;20439;-69
2023/08/20 11:40:23;;;;;;;5.20;3.63;;;35.00;69.90;;;;;;4972750;28;20026;-69
2023/08/20 11:42:49;;;;;;;8.25;3.92;;;34.70;69.80;;;;;;4977287;28;20069;-69
2023/08/20 11:45:15;;;;;;;4.90;3.30;;;34.30;71.10;;;;;;4975690;28;20026;-68
2023/08/20 11:47:41;;;;;;;10.13;3.67;;;34.90;69.00;;;;;;4971900;28;20098;-68
2023/08/20 11:50:08;;;;;;;7.28;3.70;;;35.30;70.10;;;;;;4972250;28;20026;-68
2023/08/20 11:52:35;;;;;;;6.82;4.30;;;36.40;68.30;;;;;;4972168;28;20038;-69
2023/08/20 11:55:01;;;;;;;7.68;3.42;;;37.50;65.50;;;;;;4973445;28;20042;-68
2023/08/20 11:57:29;;;;;;;8.77;4.38;;;37.80;66.00;;;;;;4973217;28;20031;-69
2023/08/20 11:59:55;;;;;;;5.10;3.33;;;38.10;64.70;;;;;;4983147;28;20046;-71
2023/08/20 12:02:27;;;;;;;3.95;2.85;;;37.60;62.10;;;;;;4982889;28;20054;-68
2023/08/20 12:04:59;;;;;;;5.85;3.25;;;36.70;63.70;;;;;;4983105;28;20077;-70
2023/08/20 12:07:28;;;;;;;7.57;3.40;;;36.80;64.00;;;;;;4982979;28;20015;-69
2023/08/20 12:09:55;;;;;;;8.20;2.80;;;36.80;62.10;;;;;;4982866;28;20038;-67
2023/08/20 12:12:21;;;;;;;3.75;2.85;;;37.40;61.20;;;;;;4982999;28;20120;-69
2023/08/20 12:14:47;;;;;;;3.25;2.95;;;38.20;60.80;;;;;;4982816;28;20069;-68
2023/08/20 12:17:17;;;;;;;5.10;3.58;;;38.40;59.00;;;;;;4982887;28;20066;-69
2023/08/20 12:19:43;;;;;;;9.00;2.90;;;38.60;59.30;;;;;;4982557;28;20046;-69
2023/08/20 12:22:08;;;;;;;3.53;2.75;;;38.50;58.70;;;;;;4982646;28;20030;-68
2023/08/20 12:24:34;;;;;;;3.78;3.17;;;39.20;58.40;;;;;;4982777;28;20215;-69
2023/08/20 12:27:00;;;;;;;5.50;2.80;;;39.50;57.10;;;;;;4982691;28;20075;-69
2023/08/20 12:29:25;;;;;;;3.60;3.25;;;40.10;57.00;;;;;;4965187;28;20034;-68
2023/08/20 12:31:51;;;;;;;8.82;3.47;;;41.00;55.20;;;;;;4982547;28;20043;-69
2023/08/20 12:34:17;;;;;;;2.75;2.55;;;41.00;55.60;;;;;;4982480;28;20037;-71
2023/08/20 12:36:42;;;;;;;2.75;2.60;;;40.70;55.90;;;;;;4982484;28;20026;-69
2023/08/20 12:39:08;;;;;;;4.30;2.85;;;40.50;55.90;;;;;;4982578;28;20427;-69
2023/08/20 12:41:36;;;;;;;3.83;2.92;;;39.80;55.10;;;;;;4982502;28;20019;-68
2023/08/20 12:44:02;;;;;;;5.00;2.58;;;38.90;56.30;;;;;;4982837;28;20073;-68